Time;durP1;ratioP1;P1;durP2;ratioP2;P2;SDS_P1;SDS_P2;PMS_P1;PMS_P2;Temp;Humidity;BMP_temperature;BMP_pressure;BME280_temperature;BME280_humidity;BME280_pressure;Samples;Min_cycle;Max_cycle;Signal;HPM_P1;HPM_P2
2023/07/10 00:01:13;;;;;;;4.20;3.20;;;;;;;17.94;60.36;99267.09;107488;1253;59606;-39
2023/07/10 00:03:41;;;;;;;6.00;3.20;;;;;;;17.92;60.34;99270.31;107494;1254;60142;-39
2023/07/10 00:06:12;;;;;;;3.70;3.00;;;;;;;17.89;60.47;99266.91;107507;1254;73501;-40
2023/07/10 00:08:39;;;;;;;3.90;3.10;;;;;;;17.86;60.52;99265.85;107513;1254;66371;-39
2023/07/10 00:11:15;;;;;;;6.60;3.30;;;;;;;17.79;60.71;99262.09;107508;1254;72716;-39
2023/07/10 00:13:43;;;;;;;4.00;3.00;;;;;;;17.73;60.87;99267.02;107515;1254;59346;-40
2023/07/10 00:16:15;;;;;;;4.90;3.10;;;;;;;17.69;61.12;99264.15;107584;1253;60046;-39
2023/07/10 00:18:43;;;;;;;5.80;3.10;;;;;;;17.70;61.19;99264.95;107536;1254;73022;-39
2023/07/10 00:21:10;;;;;;;4.30;3.10;;;;;;;17.74;61.04;99266.77;107524;1254;66264;-40
2023/07/10 00:23:38;;;;;;;4.70;3.30;;;;;;;17.75;61.02;99266.61;107545;1254;71404;-40
2023/07/10 00:26:19;;;;;;;4.00;3.00;;;;;;;17.73;61.23;99266.31;107531;1254;60202;-39
2023/07/10 00:28:48;;;;;;;4.60;3.10;;;;;;;17.73;61.17;99265.45;107431;1254;60026;-40
2023/07/10 00:31:16;;;;;;;5.10;3.50;;;;;;;17.71;61.05;99263.60;107478;1257;73037;-39
2023/07/10 00:33:47;;;;;;;3.50;3.10;;;;;;;17.68;60.98;99263.63;107483;1254;66814;-39
2023/07/10 00:36:38;;;;;;;4.50;3.40;;;;;;;17.65;61.20;99267.96;107387;1252;72694;-40
2023/07/10 00:39:20;;;;;;;4.80;3.20;;;;;;;17.62;61.40;99266.51;107651;1256;59631;-40
2023/07/10 00:41:51;;;;;;;4.90;3.20;;;;;;;17.55;61.60;99264.61;107694;1252;59794;-39
2023/07/10 00:44:20;;;;;;;5.40;3.40;;;;;;;17.48;61.78;99270.15;107684;1252;72150;-39
2023/07/10 00:47:19;;;;;;;4.30;3.30;;;;;;;17.39;61.89;99264.61;107738;1252;67878;-39
2023/07/10 00:49:52;;;;;;;3.60;2.90;;;;;;;17.32;62.23;99269.39;107434;1253;72739;-40
2023/07/10 00:52:22;;;;;;;5.60;3.00;;;;;;;17.30;62.41;99269.95;107463;1253;60654;-39
2023/07/10 00:54:51;;;;;;;4.10;3.20;;;;;;;17.32;62.52;99271.34;107679;1254;60281;-40
2023/07/10 00:57:35;;;;;;;4.10;3.00;;;;;;;17.30;62.56;99270.96;107712;1254;72685;-40
2023/07/10 01:00:30;;;;;;;4.90;3.50;;;;;;;17.24;62.62;99271.10;107637;1254;66720;-39
2023/07/10 01:02:57;;;;;;;5.50;3.10;;;;;;;17.17;63.00;99281.98;107498;1252;72708;-40
2023/07/10 01:05:25;;;;;;;4.50;3.20;;;;;;;17.10;63.25;99282.11;107656;1254;60398;-40
2023/07/10 01:07:54;;;;;;;8.70;3.30;;;;;;;17.07;63.48;99281.59;107518;1257;59256;-40
2023/07/10 01:10:21;;;;;;;6.90;3.80;;;;;;;17.03;63.49;99281.16;107605;1257;72202;-40
2023/07/10 01:12:49;;;;;;;4.80;3.50;;;;;;;16.98;63.73;99282.23;107726;1253;66556;-40
2023/07/10 01:15:17;;;;;;;4.30;3.40;;;;;;;16.94;63.61;99283.17;107685;1253;71751;-39
2023/07/10 01:17:46;;;;;;;3.80;3.20;;;;;;;16.91;63.71;99284.06;107578;1254;59671;-40
2023/07/10 01:20:42;;;;;;;4.30;3.10;;;;;;;16.90;63.89;99284.55;107704;1253;60028;-39
2023/07/10 01:23:09;;;;;;;5.00;3.40;;;;;;;16.90;63.94;99281.56;107528;1254;73809;-39
2023/07/10 01:25:57;;;;;;;4.20;3.20;;;;;;;16.89;64.18;99283.45;107706;1254;67861;-39
2023/07/10 01:28:25;;;;;;;6.90;3.20;;;;;;;16.88;64.12;99285.42;107715;1252;71410;-39
2023/07/10 01:30:53;;;;;;;4.60;3.20;;;;;;;16.86;64.14;99287.63;107484;1253;60393;-39
2023/07/10 01:33:35;;;;;;;8.10;3.60;;;;;;;16.85;64.04;99292.17;107644;1253;60425;-39
2023/07/10 01:36:03;;;;;;;4.60;3.40;;;;;;;16.80;64.20;99295.98;107651;1253;73844;-40
2023/07/10 01:38:35;;;;;;;6.50;3.60;;;;;;;16.74;64.43;99299.30;107486;1253;67974;-40
2023/07/10 01:41:09;;;;;;;5.20;3.20;;;;;;;16.72;64.47;99301.11;107482;1253;72750;-39
2023/07/10 01:43:37;;;;;;;4.60;3.00;;;;;;;16.73;64.51;99298.36;107486;1253;60399;-39
2023/07/10 01:46:16;;;;;;;4.10;3.10;;;;;;;16.77;64.57;99297.63;107299;1253;60359;-39
2023/07/10 01:48:44;;;;;;;3.40;3.10;;;;;;;16.80;64.49;99298.93;107469;1253;72627;-39
2023/07/10 01:51:12;;;;;;;4.90;3.30;;;;;;;16.78;64.35;99298.17;107499;1256;67958;-40
2023/07/10 01:53:43;;;;;;;5.70;3.80;;;;;;;16.75;64.45;99300.94;107319;1253;72720;-40
2023/07/10 01:56:12;;;;;;;4.30;3.40;;;;;;;16.74;64.43;99301.27;107545;1253;60274;-40
2023/07/10 01:58:40;;;;;;;9.40;3.70;;;;;;;16.71;64.50;99301.11;107330;1253;60278;-39
2023/07/10 02:01:08;;;;;;;11.40;3.50;;;;;;;16.67;64.34;99300.83;107457;1254;73912;-39
2023/07/10 02:03:36;;;;;;;6.00;3.30;;;;;;;16.65;64.43;99304.38;107500;1253;67588;-40
2023/07/10 02:06:04;;;;;;;3.80;3.40;;;;;;;16.66;64.62;99306.23;107444;1253;72808;-40
2023/07/10 02:08:32;;;;;;;5.50;3.50;;;;;;;16.70;64.60;99305.66;107536;1254;60170;-40
2023/07/10 02:10:59;;;;;;;5.50;3.60;;;;;;;16.73;64.48;99310.48;107481;1253;60323;-39
2023/07/10 02:13:27;;;;;;;4.50;3.20;;;;;;;16.71;64.38;99314.95;107345;1253;72684;-39
2023/07/10 02:15:54;;;;;;;4.50;3.60;;;;;;;16.67;64.50;99318.35;107465;1258;67613;-40
2023/07/10 02:18:22;;;;;;;4.40;3.70;;;;;;;16.66;64.65;99319.45;107332;1254;71540;-39
2023/07/10 02:20:50;;;;;;;6.00;3.70;;;;;;;16.65;64.70;99322.27;107301;1253;60434;-39
2023/07/10 02:23:18;;;;;;;4.90;3.60;;;;;;;16.66;64.80;99321.41;107487;1254;60011;-39
2023/07/10 02:25:46;;;;;;;6.50;3.60;;;;;;;16.72;64.65;99323.48;107505;1253;74297;-40
2023/07/10 02:28:15;;;;;;;4.40;3.40;;;;;;;16.75;64.48;99316.96;107459;1256;66764;-39
2023/07/10 02:30:42;;;;;;;5.80;3.30;;;;;;;16.76;64.45;99320.23;107530;1253;73057;-39
2023/07/10 02:33:10;;;;;;;5.40;3.40;;;;;;;16.74;64.62;99324.10;107492;1253;60587;-39
2023/07/10 02:35:40;;;;;;;5.40;3.60;;;;;;;16.73;64.70;99325.35;107444;1253;60385;-39
2023/07/10 02:38:08;;;;;;;5.00;3.90;;;;;;;16.70;64.85;99329.50;107491;1253;73991;-39
2023/07/10 02:40:35;;;;;;;4.80;3.80;;;;;;;16.66;64.88;99323.67;107517;1253;66336;-40
2023/07/10 02:43:03;;;;;;;6.50;3.80;;;;;;;16.65;65.01;99325.80;107467;1254;72730;-40
2023/07/10 02:45:31;;;;;;;8.60;3.90;;;;;;;16.62;65.24;99322.98;107447;1255;60458;-39
2023/07/10 02:47:58;;;;;;;5.50;3.60;;;;;;;16.61;65.29;99319.09;107467;1258;60461;-39
2023/07/10 02:50:26;;;;;;;4.70;4.10;;;;;;;16.64;65.19;99317.20;107483;1253;72872;-39
2023/07/10 02:52:53;;;;;;;6.70;3.50;;;;;;;16.67;65.36;99309.68;107491;1253;66388;-39
2023/07/10 02:55:21;;;;;;;5.20;3.50;;;;;;;16.71;65.32;99312.23;107499;1253;72709;-40
2023/07/10 02:57:48;;;;;;;5.20;3.60;;;;;;;16.73;65.33;99313.85;107476;1253;60442;-39
2023/07/10 03:00:16;;;;;;;4.10;3.60;;;;;;;16.75;65.43;99318.22;107339;1253;60480;-39
2023/07/10 03:02:44;;;;;;;4.50;3.50;;;;;;;16.73;65.35;99312.92;107466;1253;73851;-40
2023/07/10 03:05:12;;;;;;;4.50;3.40;;;;;;;16.74;65.46;99314.78;107462;1254;67612;-39
2023/07/10 03:07:39;;;;;;;5.20;3.60;;;;;;;16.79;65.42;99315.77;107501;1258;72716;-39
2023/07/10 03:10:08;;;;;;;4.20;3.60;;;;;;;16.83;65.46;99316.59;107507;1254;60431;-39
2023/07/10 03:12:36;;;;;;;6.10;3.90;;;;;;;16.84;65.40;99320.11;107513;1253;60504;-39
2023/07/10 03:15:05;;;;;;;6.00;3.90;;;;;;;16.84;65.39;99316.05;107497;1253;73830;-40
2023/07/10 03:17:32;;;;;;;5.10;3.70;;;;;;;16.85;65.55;99320.49;107562;1254;66785;-40
2023/07/10 03:20:00;;;;;;;4.90;3.90;;;;;;;16.87;65.50;99318.91;107471;1253;72680;-40
2023/07/10 03:22:28;;;;;;;6.30;4.10;;;;;;;16.86;65.48;99321.73;107484;1253;60410;-40
2023/07/10 03:24:55;;;;;;;5.10;3.50;;;;;;;16.84;65.55;99324.04;107485;1253;60492;-40
2023/07/10 03:27:24;;;;;;;5.60;3.90;;;;;;;16.86;65.68;99326.58;107488;1253;73856;-40
2023/07/10 03:29:51;;;;;;;6.40;4.10;;;;;;;16.91;65.81;99328.75;107483;1258;66783;-40
2023/07/10 03:32:19;;;;;;;4.80;3.70;;;;;;;16.94;65.69;99328.02;107488;1253;72900;-40
2023/07/10 03:34:49;;;;;;;8.10;3.80;;;;;;;16.98;65.77;99325.56;107513;1253;60502;-40
2023/07/10 03:37:17;;;;;;;5.50;3.90;;;;;;;17.00;65.51;99329.86;107490;1254;60268;-40
2023/07/10 03:39:44;;;;;;;6.20;4.30;;;;;;;17.00;65.55;99328.92;107522;1253;73905;-40
2023/07/10 03:42:12;;;;;;;5.90;3.70;;;;;;;16.99;65.75;99325.57;107523;1254;66596;-40
2023/07/10 03:44:39;;;;;;;6.90;4.10;;;;;;;16.98;65.88;99322.44;107496;1254;71397;-40
2023/07/10 03:47:07;;;;;;;5.50;3.50;;;;;;;17.04;65.95;99327.40;107461;1254;61621;-40
2023/07/10 03:49:35;;;;;;;5.60;4.10;;;;;;;17.11;65.87;99328.35;107488;1252;60790;-40
2023/07/10 03:52:04;;;;;;;6.30;3.60;;;;;;;17.16;65.61;99322.44;107485;1254;73828;-40
2023/07/10 03:54:33;;;;;;;6.10;3.40;;;;;;;17.23;65.61;99320.90;107529;1254;67579;-40
2023/07/10 03:57:00;;;;;;;5.30;3.90;;;;;;;17.25;65.42;99319.23;107491;1254;71850;-40
2023/07/10 03:59:28;;;;;;;4.90;3.80;;;;;;;17.25;65.73;99317.83;107505;1258;60110;-40
2023/07/10 04:01:56;;;;;;;5.90;3.80;;;;;;;17.29;65.65;99313.73;107561;1254;60367;-40
2023/07/10 04:04:24;;;;;;;4.00;3.50;;;;;;;17.30;65.45;99312.38;107465;1254;72568;-40
2023/07/10 04:06:51;;;;;;;5.70;3.50;;;;;;;17.34;65.43;99308.27;107538;1254;67578;-40
2023/07/10 04:09:19;;;;;;;4.10;3.60;;;;;;;17.40;65.25;99305.01;107475;1254;72694;-40
2023/07/10 04:11:47;;;;;;;5.20;3.90;;;;;;;17.45;65.11;99303.39;107486;1254;60438;-40
2023/07/10 04:14:14;;;;;;;6.90;3.40;;;;;;;17.50;65.05;99305.69;107522;1254;60124;-40
2023/07/10 04:16:42;;;;;;;12.10;4.20;;;;;;;17.56;64.87;99304.14;107502;1254;73821;-40
2023/07/10 04:19:10;;;;;;;4.80;3.70;;;;;;;17.60;64.60;99302.40;107496;1254;67869;-40
2023/07/10 04:21:37;;;;;;;4.90;3.70;;;;;;;17.61;64.54;99301.61;107519;1254;71422;-40
2023/07/10 04:24:05;;;;;;;4.00;3.50;;;;;;;17.61;64.46;99299.49;107460;1259;61685;-40
2023/07/10 04:26:33;;;;;;;6.00;3.70;;;;;;;17.66;64.60;99298.42;107458;1254;60527;-40
2023/07/10 04:29:02;;;;;;;4.60;3.50;;;;;;;17.75;64.73;99297.22;107520;1253;72854;-40
2023/07/10 04:31:31;;;;;;;5.80;3.90;;;;;;;17.86;64.31;99297.27;107603;1253;66296;-40
2023/07/10 04:33:58;;;;;;;4.90;3.60;;;;;;;17.90;63.82;99297.45;107538;1258;70585;-40
2023/07/10 04:36:26;;;;;;;6.00;3.80;;;;;;;17.91;63.51;99295.48;107421;1254;60631;-40
2023/07/10 04:38:54;;;;;;;5.50;3.90;;;;;;;17.90;63.51;99291.10;107441;1253;60306;-40
2023/07/10 04:41:23;;;;;;;6.20;4.10;;;;;;;17.93;63.83;99286.69;107456;1253;73896;-40
2023/07/10 04:43:50;;;;;;;10.10;4.10;;;;;;;17.98;63.75;99289.92;107428;1253;67908;-40
2023/07/10 04:46:18;;;;;;;4.90;3.70;;;;;;;18.06;63.60;99288.02;107428;1253;74225;-40
2023/07/10 04:48:46;;;;;;;4.90;3.70;;;;;;;18.16;63.57;99289.92;107449;1253;60319;-40
2023/07/10 04:51:15;;;;;;;4.30;3.90;;;;;;;18.24;63.38;99293.56;107448;1253;60429;-40
2023/07/10 04:53:43;;;;;;;5.60;3.80;;;;;;;18.29;63.50;99296.10;107489;1253;73908;-40
2023/07/10 04:56:12;;;;;;;4.30;3.70;;;;;;;18.37;63.27;99298.58;107449;1253;67874;-40
2023/07/10 04:58:56;;;;;;;5.60;4.00;;;;;;;18.46;62.59;99300.59;107466;1253;71424;-40
2023/07/10 05:01:32;;;;;;;6.40;3.80;;;;;;;18.47;62.22;99308.55;107434;1254;60507;-40
2023/07/10 05:04:01;;;;;;;5.60;3.60;;;;;;;18.44;62.62;99308.44;107493;1253;60214;-40
2023/07/10 05:06:29;;;;;;;5.50;3.90;;;;;;;18.42;62.70;99302.98;107456;1253;73886;-40
2023/07/10 05:08:58;;;;;;;8.50;4.00;;;;;;;18.47;62.78;99309.10;107415;1253;67868;-40
2023/07/10 05:11:27;;;;;;;4.70;3.80;;;;;;;18.56;62.67;99305.46;107429;1253;72683;-40
2023/07/10 05:13:55;;;;;;;4.90;4.30;;;;;;;18.61;62.79;99310.04;107513;1253;60448;-40
2023/07/10 05:16:23;;;;;;;7.10;3.70;;;;;;;18.67;62.33;99306.89;107433;1253;60317;-40
2023/07/10 05:18:51;;;;;;;7.00;4.30;;;;;;;18.71;61.91;99308.02;107475;1253;73853;-40
2023/07/10 05:21:19;;;;;;;4.30;3.60;;;;;;;18.72;61.79;99305.09;107470;1253;67978;-40
2023/07/10 05:23:46;;;;;;;5.00;3.90;;;;;;;18.75;61.76;99301.84;107438;1258;72702;-40
2023/07/10 05:26:15;;;;;;;9.20;4.40;;;;;;;18.79;62.06;99305.06;107429;1253;60504;-40
2023/07/10 05:28:43;;;;;;;4.60;3.90;;;;;;;18.85;61.98;99304.50;107536;1255;60700;-40
2023/07/10 05:31:10;;;;;;;5.10;3.80;;;;;;;18.92;61.67;99305.96;107460;1253;73864;-40
2023/07/10 05:33:39;;;;;;;4.10;3.60;;;;;;;18.99;61.27;99304.98;107447;1253;67895;-40
2023/07/10 05:36:10;;;;;;;5.30;3.90;;;;;;;19.04;61.00;99301.53;107501;1254;71386;-40
2023/07/10 05:38:38;;;;;;;6.20;4.30;;;;;;;19.12;61.52;99300.45;107438;1254;60536;-40
2023/07/10 05:41:06;;;;;;;4.90;4.10;;;;;;;19.20;61.22;99302.20;107470;1253;60400;-40
2023/07/10 05:43:34;;;;;;;4.40;4.00;;;;;;;19.24;60.96;99302.13;107455;1253;74298;-40
2023/07/10 05:46:02;;;;;;;5.10;4.20;;;;;;;19.26;61.74;99300.60;107480;1253;66510;-40
2023/07/10 05:48:31;;;;;;;4.50;4.00;;;;;;;19.33;61.65;99300.02;107437;1254;72712;-40
2023/07/10 05:50:59;;;;;;;6.10;4.50;;;;;;;19.39;60.67;99298.42;107449;1253;60515;-40
2023/07/10 05:53:27;;;;;;;4.90;4.40;;;;;;;19.43;60.29;99297.35;107431;1253;60317;-40
2023/07/10 05:55:55;;;;;;;7.40;4.50;;;;;;;19.46;60.27;99294.70;107441;1258;72877;-40
2023/07/10 05:58:25;;;;;;;4.40;3.90;;;;;;;19.49;60.24;99298.97;107506;1253;67911;-40
2023/07/10 06:00:54;;;;;;;;;;;;;;;19.55;60.16;99301.23;107452;1258;72450;-40
2023/07/10 06:03:22;;;;;;;7.10;4.00;;;;;;;19.60;60.32;99303.64;107481;1254;61704;-40
2023/07/10 06:05:53;;;;;;;4.90;3.90;;;;;;;19.69;59.93;99297.73;107447;1253;59252;-40
2023/07/10 06:08:22;;;;;;;6.10;4.40;;;;;;;19.81;60.24;99297.73;107469;1253;73853;-40
2023/07/10 06:10:50;;;;;;;9.10;4.70;;;;;;;19.93;59.84;99296.33;107497;1253;66316;-40
2023/07/10 06:13:18;;;;;;;4.70;4.10;;;;;;;20.03;59.15;99294.73;107422;1256;71417;-40
2023/07/10 06:15:47;;;;;;;4.60;4.00;;;;;;;20.08;58.82;99296.95;107513;1253;59677;-40
2023/07/10 06:18:15;;;;;;;4.20;3.70;;;;;;;20.14;58.65;99294.24;107469;1253;60400;-40
2023/07/10 06:20:43;;;;;;;5.20;3.60;;;;;;;20.18;58.74;99294.62;107467;1253;73232;-40
2023/07/10 06:23:11;;;;;;;4.00;3.70;;;;;;;20.24;58.24;99295.84;107452;1253;66793;-40
2023/07/10 06:25:43;;;;;;;4.90;3.90;;;;;;;20.26;58.17;99296.80;107417;1254;72711;-40
2023/07/10 06:28:12;;;;;;;5.30;3.60;;;;;;;20.30;57.85;99299.73;107428;1254;60412;-40
2023/07/10 06:30:46;;;;;;;4.60;3.80;;;;;;;20.36;57.79;99303.84;107442;1258;61712;-40
2023/07/10 06:33:13;;;;;;;5.80;3.60;;;;;;;20.45;57.90;99303.92;107419;1253;72569;-40
2023/07/10 06:35:42;;;;;;;3.90;3.50;;;;;;;20.53;57.35;99303.89;107401;1253;67619;-40
2023/07/10 06:38:09;;;;;;;4.40;3.20;;;;;;;20.62;56.96;99305.27;107433;1253;72700;-40
2023/07/10 06:40:37;;;;;;;4.90;3.70;;;;;;;20.67;56.61;99299.09;107432;1253;60351;-40
2023/07/10 06:43:04;;;;;;;7.50;3.60;;;;;;;20.72;56.75;99290.14;107437;1253;60385;-40
2023/07/10 06:45:32;;;;;;;3.80;3.30;;;;;;;20.79;56.12;99292.91;107412;1253;73085;-40
2023/07/10 06:47:59;;;;;;;4.10;3.60;;;;;;;20.83;56.25;99288.24;107401;1253;67898;-40
2023/07/10 06:50:27;;;;;;;3.80;3.00;;;;;;;20.88;56.60;99284.02;107421;1253;72738;-40
2023/07/10 06:52:55;;;;;;;3.30;2.80;;;;;;;20.94;55.84;99280.95;107419;1258;60505;-40
2023/07/10 06:55:22;;;;;;;3.60;2.70;;;;;;;21.00;55.59;99279.24;107436;1253;60514;-40
2023/07/10 06:57:50;;;;;;;3.20;2.70;;;;;;;21.06;55.88;99270.02;107422;1258;73834;-40
2023/07/10 07:00:18;;;;;;;3.50;2.70;;;;;;;21.13;55.05;99273.05;107416;1253;66641;-40
2023/07/10 07:02:46;;;;;;;6.80;2.80;;;;;;;21.20;55.11;99272.48;107456;1253;72460;-40
2023/07/10 07:05:14;;;;;;;5.10;2.70;;;;;;;21.26;54.36;99264.92;107416;1253;60552;-40
2023/07/10 07:07:41;;;;;;;3.00;2.50;;;;;;;21.37;54.37;99270.92;107439;1253;60306;-40
2023/07/10 07:10:14;;;;;;;4.50;2.70;;;;;;;21.46;54.45;99271.39;107431;1253;73950;-40
2023/07/10 07:12:42;;;;;;;3.30;2.60;;;;;;;21.52;54.13;99272.59;107440;1253;66311;-40
2023/07/10 07:15:11;;;;;;;4.60;2.40;;;;;;;21.53;53.14;99269.57;107448;1254;72791;-40
2023/07/10 07:17:39;;;;;;;2.50;2.20;;;;;;;21.55;52.30;99269.33;107424;1253;60400;-40
2023/07/10 07:20:07;;;;;;;3.20;2.20;;;;;;;21.59;52.48;99267.98;107413;1253;60307;-40
2023/07/10 07:22:35;;;;;;;2.40;2.20;;;;;;;21.64;52.75;99264.20;107434;1253;73956;-40
2023/07/10 07:25:03;;;;;;;2.60;2.00;;;;;;;21.73;52.66;99258.67;107439;1253;67566;-40
2023/07/10 07:27:32;;;;;;;2.70;2.40;;;;;;;21.85;51.76;99256.84;107428;1254;71445;-40
2023/07/10 07:30:03;;;;;;;3.60;2.20;;;;;;;21.97;51.75;99258.49;107368;1253;60333;-40
2023/07/10 07:32:30;;;;;;;2.10;1.90;;;;;;;22.09;51.55;99259.55;107472;1253;60454;-40
2023/07/10 07:34:59;;;;;;;6.30;2.30;;;;;;;22.19;50.31;99260.94;107378;1253;73848;-40
2023/07/10 07:37:27;;;;;;;3.30;2.10;;;;;;;22.27;50.22;99256.36;107430;1253;66935;-40
2023/07/10 07:39:56;;;;;;;2.80;2.00;;;;;;;22.36;49.91;99256.08;107426;1255;71387;-40
2023/07/10 07:42:24;;;;;;;3.60;2.00;;;;;;;22.46;49.57;99251.02;107368;1253;60323;-40
2023/07/10 07:44:52;;;;;;;2.20;2.00;;;;;;;22.56;49.24;99249.60;107401;1253;60378;-40
2023/07/10 07:47:19;;;;;;;3.10;2.30;;;;;;;22.65;49.65;99247.26;107403;1253;73853;-40
2023/07/10 07:49:47;;;;;;;4.90;2.30;;;;;;;22.76;50.09;99245.52;107381;1253;65862;-40
2023/07/10 07:52:14;;;;;;;2.60;1.80;;;;;;;22.92;47.46;99249.65;107414;1253;73130;-40
2023/07/10 07:54:42;;;;;;;2.50;1.90;;;;;;;23.04;46.59;99246.81;107388;1255;61096;-40
2023/07/10 07:57:09;;;;;;;3.60;2.00;;;;;;;23.11;46.54;99248.24;107372;1253;60403;-40
2023/07/10 07:59:37;;;;;;;3.90;2.30;;;;;;;23.18;46.67;99241.73;107389;1253;73908;-40
2023/07/10 08:02:05;;;;;;;5.90;2.20;;;;;;;23.30;46.68;99243.93;107413;1253;67559;-40
2023/07/10 08:04:34;;;;;;;2.20;1.90;;;;;;;23.43;46.13;99239.63;107475;1253;72676;-40
2023/07/10 08:07:01;;;;;;;3.80;2.30;;;;;;;23.53;46.77;99236.73;107359;1253;60311;-40
2023/07/10 08:09:29;;;;;;;2.30;1.90;;;;;;;23.65;46.80;99235.84;107380;1253;60423;-40
2023/07/10 08:11:56;;;;;;;3.10;2.30;;;;;;;23.69;46.17;99235.84;107389;1253;74173;-40
2023/07/10 08:14:24;;;;;;;2.50;2.10;;;;;;;23.65;45.68;99242.88;107342;1253;67593;-41
2023/07/10 08:16:52;;;;;;;4.30;2.20;;;;;;;23.56;46.29;99237.65;107389;1253;72703;-40
2023/07/10 08:19:19;;;;;;;3.20;2.30;;;;;;;23.59;46.93;99237.58;107391;1253;60381;-40
2023/07/10 08:21:47;;;;;;;2.60;2.10;;;;;;;23.71;46.86;99237.50;107391;1253;60303;-40
2023/07/10 08:24:15;;;;;;;3.20;2.00;;;;;;;23.78;45.48;99242.86;107352;1253;73875;-40
2023/07/10 08:26:42;;;;;;;3.40;1.90;;;;;;;23.72;45.42;99241.61;107409;1253;67704;-40
2023/07/10 08:29:29;;;;;;;2.70;1.90;;;;;;;23.63;45.80;99239.85;107372;1258;73265;-40
2023/07/10 08:32:00;;;;;;;3.10;1.80;;;;;;;23.61;46.15;99239.88;107381;1256;60460;-41
2023/07/10 08:34:29;;;;;;;2.20;2.00;;;;;;;23.64;45.89;99236.90;107408;1253;61070;-40
2023/07/10 08:36:58;;;;;;;3.80;2.10;;;;;;;23.73;46.01;99232.92;107411;1253;73922;-41
2023/07/10 08:39:26;;;;;;;;;;;;;;;23.88;46.27;99232.33;107414;1253;67689;-40
2023/07/10 08:42:03;;;;;;;2.50;2.10;;;;;;;23.99;44.83;99233.26;107354;1254;72761;-40
2023/07/10 08:44:33;;;;;;;2.00;1.90;;;;;;;24.02;44.44;99232.51;107419;1253;60429;-40
2023/07/10 08:47:15;;;;;;;2.40;2.10;;;;;;;24.05;44.93;99224.06;107389;1253;59222;-40
2023/07/10 08:49:54;;;;;;;2.90;2.00;;;;;;;24.13;44.52;99219.67;107435;1253;73912;-40
2023/07/10 08:54:54;;;;;;;1.90;1.60;;;;;;;24.07;44.19;99226.08;104228;1291;600265;-39
2023/07/10 08:57:43;;;;;;;1.80;1.60;;;;;;;24.09;43.12;99223.05;106605;1267;60078;-39
2023/07/10 09:00:14;;;;;;;1.90;1.70;;;;;;;24.18;42.99;99227.70;106557;1267;59209;-39
2023/07/10 09:02:44;;;;;;;4.20;1.80;;;;;;;24.25;43.08;99224.89;106662;1266;72276;-40
2023/07/10 09:05:23;;;;;;;1.80;1.60;;;;;;;24.41;43.47;99219.55;106689;1267;67948;-40
2023/07/10 09:07:51;;;;;;;2.50;1.60;;;;;;;24.54;42.28;99227.91;106563;1266;136625;-40
2023/07/10 09:10:24;;;;;;;1.80;1.70;;;;;;;24.58;41.51;99221.80;106689;1267;60154;-40
2023/07/10 09:12:53;;;;;;;4.90;1.60;;;;;;;24.58;42.26;99216.54;106792;1263;59332;-40
2023/07/10 09:15:26;;;;;;;2.00;1.80;;;;;;;24.60;42.28;99226.94;106733;1263;72240;-40
2023/07/10 09:18:06;;;;;;;2.60;1.70;;;;;;;24.54;40.82;99221.67;106750;1263;67581;-40
2023/07/10 09:20:33;;;;;;;1.80;1.60;;;;;;;24.47;41.71;99215.33;106718;1266;71521;-40
2023/07/10 09:23:03;;;;;;;2.70;1.80;;;;;;;24.40;41.79;99223.84;106721;1263;59556;-39
2023/07/10 09:25:34;;;;;;;2.80;1.80;;;;;;;24.32;41.84;99223.38;106742;1264;59543;-40
2023/07/10 09:28:02;;;;;;;3.20;1.90;;;;;;;24.30;42.72;99231.84;106758;1263;73047;-40
2023/07/10 09:30:58;;;;;;;2.60;1.70;;;;;;;24.37;42.82;99221.12;106739;1264;67765;-40
2023/07/10 09:33:56;;;;;;;2.60;1.80;;;;;;;24.54;42.93;99216.86;106785;1260;72518;-40
2023/07/10 09:36:24;;;;;;;3.20;1.80;;;;;;;24.68;42.68;99225.08;106787;1260;60097;-39
2023/07/10 09:38:52;;;;;;;4.20;1.90;;;;;;;24.75;42.06;99229.46;106912;1261;59590;-40
2023/07/10 09:41:27;;;;;;;1.80;1.60;;;;;;;24.86;42.04;99221.59;106901;1260;73547;-40
2023/07/10 09:44:04;;;;;;;2.10;1.60;;;;;;;25.00;42.64;99219.59;106891;1260;67622;-40
2023/07/10 09:46:33;;;;;;;2.40;1.90;;;;;;;25.05;41.07;99224.44;106877;1260;72735;-40
2023/07/10 09:49:03;;;;;;;1.90;1.70;;;;;;;24.99;41.29;99219.86;106881;1260;60108;-40
2023/07/10 09:51:31;;;;;;;2.20;1.60;;;;;;;25.02;41.62;99217.23;106961;1260;60209;-40
2023/07/10 09:54:04;;;;;;;2.80;1.50;;;;;;;25.06;41.15;99216.89;106877;1260;73126;-39
2023/07/10 09:56:38;;;;;;;2.10;1.60;;;;;;;25.01;41.11;99223.30;106930;1266;66484;-40
2023/07/10 09:59:23;;;;;;;2.30;1.70;;;;;;;24.84;40.78;99223.89;107201;1257;72679;-40
2023/07/10 10:01:52;;;;;;;2.00;1.60;;;;;;;24.64;41.66;99220.08;107198;1257;60455;-40
2023/07/10 10:04:26;;;;;;;1.90;1.70;;;;;;;24.61;42.16;99217.35;107180;1257;60085;-39
2023/07/10 10:07:02;;;;;;;1.90;1.70;;;;;;;24.72;42.35;99218.59;107144;1257;73127;-39
2023/07/10 10:09:30;;;;;;;3.30;1.90;;;;;;;24.81;41.56;99213.46;107194;1257;67589;-40
2023/07/10 10:12:23;;;;;;;2.20;1.50;;;;;;;24.84;42.12;99217.97;107041;1263;72708;-40
2023/07/10 10:14:53;;;;;;;2.60;1.70;;;;;;;24.93;41.26;99213.48;107069;1260;59630;-40
2023/07/10 10:17:21;;;;;;;2.50;2.10;;;;;;;25.03;40.75;99215.09;107150;1257;60128;-40
2023/07/10 10:19:53;;;;;;;2.70;1.30;;;;;;;25.23;39.83;99211.08;107209;1257;71212;-40
2023/07/10 10:22:21;;;;;;;2.90;1.60;;;;;;;25.43;39.66;99203.77;107167;1257;65910;-40
2023/07/10 10:24:48;;;;;;;1.70;1.50;;;;;;;25.56;39.54;99209.87;107170;1257;71586;-40
2023/07/10 10:27:35;;;;;;;1.60;1.50;;;;;;;25.61;38.78;99210.25;107184;1257;60071;-40
2023/07/10 10:30:09;;;;;;;1.70;1.30;;;;;;;25.61;38.82;99206.42;107157;1257;59509;-40
2023/07/10 10:32:47;;;;;;;1.90;1.40;;;;;;;25.68;36.56;99198.23;107170;1263;72226;-40
2023/07/10 10:35:17;;;;;;;3.70;1.20;;;;;;;25.83;35.62;99196.33;107137;1257;67562;-40
2023/07/10 10:37:53;;;;;;;;;;;;;;;25.98;35.78;99192.83;107129;1258;72709;-40
2023/07/10 10:40:49;;;;;;;1.40;1.30;;;;;;;26.06;34.59;99192.11;107122;1260;60097;-40
2023/07/10 10:43:33;;;;;;;3.30;1.60;;;;;;;26.20;36.22;99191.39;107110;1257;60226;-39
2023/07/10 10:46:26;;;;;;;2.80;1.40;;;;;;;26.46;36.53;99186.14;107170;1257;73037;-39
2023/07/10 10:49:19;;;;;;;1.80;1.60;;;;;;;26.76;35.95;99185.02;107157;1257;67887;-40
2023/07/10 10:51:53;;;;;;;2.20;1.30;;;;;;;26.97;36.06;99182.77;107100;1257;72739;-40
2023/07/10 10:54:45;;;;;;;1.30;1.20;;;;;;;27.19;34.36;99177.20;107123;1257;59712;-40
2023/07/10 10:57:38;;;;;;;1.50;1.40;;;;;;;27.44;34.20;99176.81;107128;1257;59813;-40
2023/07/10 11:00:26;;;;;;;1.60;1.50;;;;;;;27.47;34.07;99171.95;107114;1257;73022;-40
2023/07/10 11:03:15;;;;;;;1.10;1.00;;;;;;;27.40;34.11;99178.52;107107;1257;67630;-39
2023/07/10 11:05:48;;;;;;;1.50;1.30;;;;;;;27.46;32.93;99176.29;107052;1257;72699;-40
2023/07/10 11:08:19;;;;;;;1.40;1.10;;;;;;;27.55;33.01;99170.86;107076;1257;60559;-40
2023/07/10 11:10:46;;;;;;;2.00;1.50;;;;;;;27.72;33.33;99166.89;107145;1257;59939;-40
2023/07/10 11:13:29;;;;;;;1.80;1.60;;;;;;;27.81;32.91;99170.04;107027;1257;71868;-41
2023/07/10 11:15:57;;;;;;;1.90;1.60;;;;;;;27.82;33.24;99167.93;107119;1257;68256;-40
2023/07/10 11:18:25;;;;;;;1.60;1.30;;;;;;;27.88;32.82;99165.40;107131;1257;72662;-40
2023/07/10 11:20:52;;;;;;;4.70;1.60;;;;;;;27.93;32.61;99159.75;107130;1257;60100;-40
2023/07/10 11:23:33;;;;;;;5.70;1.60;;;;;;;27.96;32.33;99162.84;107031;1257;59541;-40
2023/07/10 11:26:16;;;;;;;1.80;1.50;;;;;;;27.98;33.19;99163.06;107138;1258;73289;-40
2023/07/10 11:28:58;;;;;;;1.40;1.30;;;;;;;27.94;33.68;99161.28;107149;1257;67585;-40
2023/07/10 11:31:40;;;;;;;1.90;1.30;;;;;;;27.86;33.19;99162.93;107119;1257;73186;-40
2023/07/10 11:34:14;;;;;;;3.70;1.40;;;;;;;27.75;33.08;99164.47;107171;1259;60311;-41
2023/07/10 11:36:43;;;;;;;2.00;1.50;;;;;;;27.61;33.31;99163.31;107139;1257;60466;-41
2023/07/10 11:39:17;;;;;;;2.90;1.70;;;;;;;27.37;33.71;99164.02;107158;1257;73079;-41
2023/07/10 11:41:45;;;;;;;3.90;1.80;;;;;;;27.03;34.88;99167.06;107204;1257;66437;-40
2023/07/10 11:44:28;;;;;;;2.40;1.50;;;;;;;26.81;34.87;99161.98;107145;1260;71421;-40
2023/07/10 11:47:05;;;;;;;1.70;1.40;;;;;;;26.81;35.97;99163.71;107479;1254;60063;-40